createdAt,value
2018-07-19T00:58:54.150Z,75.79
2018-07-19T01:01:24.152Z,75.55
2018-07-19T01:03:54.005Z,75.71
2018-07-19T01:06:23.205Z,75.44
2018-07-19T01:08:52.273Z,75.48
2018-07-19T01:11:21.438Z,76.18
2018-07-19T01:13:50.918Z,76.02
2018-07-19T01:16:21.246Z,76.52
2018-07-19T01:18:51.498Z,78.05
2018-07-19T01:21:21.491Z,79.13
2018-07-19T01:23:51.410Z,79.36
2018-07-19T01:26:21.185Z,79.31
2018-07-19T01:28:51.212Z,79.80
2018-07-19T01:31:21.226Z,78.94
2018-07-19T01:33:51.350Z,79.41
2018-07-19T01:36:21.390Z,79.20
2018-07-19T01:38:51.722Z,79.66
2018-07-19T01:41:32.309Z,79.36
2018-07-19T01:44:01.365Z,80.18
2018-07-19T01:46:30.404Z,80.10
2018-07-19T01:48:59.590Z,79.72
2018-07-19T01:51:29.094Z,79.86
2018-07-19T01:53:58.180Z,79.35
2018-07-19T01:56:27.326Z,79.66
2018-07-19T01:58:56.714Z,80.24
2018-07-19T02:01:25.933Z,80.37
2018-07-19T02:03:55.356Z,80.10
2018-07-19T02:06:24.507Z,80.21
2018-07-19T02:08:53.626Z,81.04
2018-07-19T02:11:23.329Z,80.44
2018-07-19T02:13:52.663Z,80.11
2018-07-19T02:16:22.089Z,80.92
2018-07-19T02:18:51.623Z,81.07
2018-07-19T02:21:21.541Z,80.86
2018-07-19T02:46:26.081Z,81.25
2018-07-19T02:48:55.436Z,82.47
2018-07-19T02:51:24.530Z,81.71
2018-07-19T02:53:53.587Z,80.83
2018-07-19T02:56:22.809Z,81.54
2018-07-19T02:58:52.252Z,80.76
2018-07-19T03:01:21.961Z,81.19
2018-07-19T03:03:52.119Z,80.97
2018-07-19T03:06:21.953Z,81.20
2018-07-19T03:08:52.472Z,80.84
2018-07-19T03:11:22.531Z,80.92
2018-07-19T03:13:52.201Z,81.90
2018-07-19T03:16:22.207Z,81.04
2018-07-19T03:18:52.066Z,81.61
2018-07-19T03:21:22.181Z,82.24
2018-07-19T03:23:52.119Z,83.77
2018-07-19T03:26:22.507Z,86.29
2018-07-19T03:28:52.143Z,87.39
2018-07-19T03:31:22.523Z,87.27
2018-07-19T03:33:52.181Z,88.31
2018-07-19T03:36:22.358Z,88.42
2018-07-19T03:38:52.193Z,88.05
2018-07-19T03:41:22.471Z,87.21
2018-07-19T03:43:52.376Z,85.63
2018-07-19T03:46:22.781Z,85.09
2018-07-19T03:48:52.327Z,86.40
2018-07-19T03:51:53.211Z,85.89
2018-07-19T03:54:22.453Z,84.42
2018-07-19T03:56:52.407Z,86.05
2018-07-19T03:59:22.659Z,87.16
2018-07-19T04:01:52.596Z,86.97
2018-07-19T04:04:22.539Z,87.44
2018-07-19T04:06:52.425Z,86.65
2018-07-19T04:09:22.653Z,88.19
2018-07-19T04:11:52.593Z,87.18
2018-07-19T04:14:22.945Z,87.00
2018-07-19T04:16:52.940Z,86.44
2018-07-19T04:19:22.854Z,84.52
2018-07-19T04:21:52.761Z,84.93
2018-07-19T04:24:23.084Z,85.30
2018-07-19T04:26:53.006Z,85.01
2018-07-19T04:29:23.705Z,85.24
2018-07-19T04:31:53.105Z,85.56
2018-07-19T04:34:22.742Z,85.97
2018-07-19T04:36:53.223Z,86.59
2018-07-19T04:39:23.012Z,85.72
2018-07-19T04:41:52.708Z,86.14
2018-07-19T04:44:23.245Z,85.49
2018-07-19T04:47:00.795Z,85.95
2018-07-19T04:49:31.965Z,86.12
2018-07-19T04:52:02.281Z,86.11
2018-07-19T04:54:31.569Z,85.90
2018-07-19T04:57:01.190Z,85.25
2018-07-19T04:59:30.533Z,84.34
2018-07-19T05:01:59.618Z,81.53
2018-07-19T05:04:28.778Z,81.13
2018-07-19T05:06:58.162Z,81.93
2018-07-19T05:09:27.310Z,83.60
2018-07-19T05:11:56.397Z,82.53
2018-07-19T05:14:25.453Z,81.80
2018-07-19T05:16:54.577Z,81.62
2018-07-19T05:19:24.057Z,80.85
2018-07-19T05:21:53.503Z,81.16
2018-07-19T05:24:23.260Z,79.97
2018-07-19T05:26:53.091Z,79.44
2018-07-19T05:29:23.409Z,79.43
2018-07-19T05:31:53.280Z,78.83
2018-07-19T05:34:23.208Z,79.32
2018-07-19T05:36:53.318Z,79.00
2018-07-19T05:39:23.422Z,77.02
2018-07-19T05:41:53.344Z,76.82
2018-07-19T05:44:23.622Z,77.23
2018-07-19T05:46:53.461Z,73.38
2018-07-19T05:49:23.476Z,71.51
2018-07-19T05:51:54.202Z,71.11
2018-07-19T05:54:23.370Z,69.36
2018-07-19T05:56:53.640Z,69.42
2018-07-19T05:59:23.370Z,68.89
2018-07-19T06:01:53.907Z,69.64
2018-07-19T06:04:23.385Z,68.85
2018-07-19T06:06:53.394Z,69.38
2018-07-19T06:09:23.599Z,68.34
2018-07-19T06:11:53.871Z,68.21
2018-07-19T06:14:23.771Z,68.17
2018-07-19T06:16:53.821Z,68.64
2018-07-19T06:19:23.634Z,67.19
2018-07-19T06:21:53.806Z,67.72
2018-07-19T06:24:23.890Z,67.76
2018-07-19T06:26:53.835Z,67.72
2018-07-19T06:29:24.100Z,67.67
2018-07-19T06:31:53.779Z,67.63
2018-07-19T06:34:24.045Z,67.76
2018-07-19T06:36:53.945Z,66.74
2018-07-19T06:39:24.247Z,67.11
2018-07-19T06:41:54.067Z,67.14
2018-07-19T06:44:23.977Z,66.27
2018-07-19T06:46:54.022Z,66.02
2018-07-19T06:49:23.888Z,65.44
2018-07-19T06:51:54.144Z,66.21
2018-07-19T06:54:23.823Z,65.05
2018-07-19T06:56:53.909Z,64.04
2018-07-19T06:59:24.279Z,65.62
2018-07-19T07:01:54.308Z,64.99
2018-07-19T07:04:24.235Z,64.43
2018-07-19T07:06:54.214Z,64.69
2018-07-19T07:09:24.453Z,63.69
2018-07-19T07:11:54.380Z,63.55
2018-07-19T07:14:24.312Z,63.52
2018-07-19T07:16:54.561Z,63.72
2018-07-19T07:19:24.410Z,63.89
2018-07-19T07:21:54.320Z,63.57
2018-07-19T07:24:24.234Z,63.14
2018-07-19T07:26:54.698Z,62.73
2018-07-19T07:29:24.252Z,61.51
2018-07-19T07:31:54.549Z,61.56
2018-07-19T07:34:24.476Z,60.96
2018-07-19T07:36:54.736Z,61.57
2018-07-19T07:39:24.455Z,61.00
2018-07-19T07:41:54.645Z,60.62
2018-07-19T07:44:24.576Z,60.37
2018-07-19T07:46:54.486Z,59.74
2018-07-19T07:49:24.582Z,59.11
2018-07-19T07:51:54.502Z,59.60
2018-07-19T07:54:24.921Z,60.06
2018-07-19T07:56:54.596Z,59.86
2018-07-19T07:59:24.903Z,57.51
2018-07-19T08:01:54.593Z,57.19
2018-07-19T08:04:24.725Z,56.13
2018-07-19T08:06:55.054Z,55.68
2018-07-19T08:09:24.785Z,55.95
2018-07-19T08:11:54.879Z,56.14
2018-07-19T08:14:24.824Z,54.74
2018-07-19T08:16:54.703Z,55.73
2018-07-19T08:19:24.973Z,54.63
2018-07-19T08:21:55.426Z,54.79
2018-07-19T08:24:25.092Z,54.62
2018-07-19T08:26:54.817Z,56.39
2018-07-19T08:29:24.803Z,54.60
2018-07-19T08:31:54.011Z,53.58
2018-07-19T08:34:23.133Z,53.04
2018-07-19T08:36:52.215Z,53.86
2018-07-19T08:39:21.478Z,52.60
2018-07-19T08:41:50.570Z,52.98
2018-07-19T08:44:19.607Z,54.57
2018-07-19T08:46:48.706Z,53.26
2018-07-19T08:49:17.800Z,53.46
2018-07-19T08:51:46.906Z,52.17
2018-07-19T08:54:16.009Z,54.46
2018-07-19T08:56:45.151Z,51.17
2018-07-19T08:59:14.265Z,48.49
2018-07-19T09:01:43.665Z,46.34
2018-07-19T09:04:12.782Z,48.09
2018-07-19T09:06:41.847Z,49.13
2018-07-19T09:09:11.267Z,46.21
2018-07-19T09:11:40.300Z,43.83
2018-07-19T09:14:09.364Z,46.39
2018-07-19T09:16:38.477Z,45.97
2018-07-19T09:19:07.539Z,45.42
2018-07-19T09:21:36.618Z,46.95
2018-07-19T09:24:06.017Z,46.04
2018-07-19T09:26:35.170Z,46.42
2018-07-19T09:29:04.267Z,45.65
2018-07-19T09:31:33.332Z,42.90
2018-07-19T09:34:02.478Z,43.75
2018-07-19T09:36:31.573Z,43.93
2018-07-19T09:39:00.647Z,44.49
2018-07-19T09:41:29.706Z,45.21
2018-07-19T09:43:58.850Z,43.57
2018-07-19T09:46:27.918Z,45.23
2018-07-19T09:48:56.994Z,44.93
2018-07-19T09:51:26.098Z,40.08
2018-07-19T09:53:55.917Z,42.86
2018-07-19T09:56:25.910Z,42.46
2018-07-19T09:58:55.854Z,40.49
2018-07-19T10:01:25.833Z,42.94
2018-07-19T10:03:55.949Z,42.31
2018-07-19T10:06:26.050Z,41.44
2018-07-19T10:08:55.929Z,42.97
2018-07-19T10:11:25.955Z,41.08
2018-07-19T10:13:55.042Z,41.47
2018-07-19T10:16:24.176Z,42.58
2018-07-19T10:18:53.303Z,41.56
2018-07-19T10:21:22.407Z,42.18
2018-07-19T10:23:51.512Z,40.43
2018-07-19T10:26:20.706Z,41.29
2018-07-19T10:28:50.032Z,42.19
2018-07-19T10:31:19.239Z,41.95
2018-07-19T10:33:48.491Z,42.68
2018-07-19T10:36:17.601Z,41.07
2018-07-19T10:38:46.677Z,40.59
2018-07-19T10:41:15.852Z,41.44
2018-07-19T10:43:45.308Z,41.14
2018-07-19T10:46:14.404Z,40.41
2018-07-19T10:48:43.484Z,41.09
2018-07-19T10:51:12.582Z,40.94
2018-07-19T10:53:41.651Z,42.21
2018-07-19T10:56:10.726Z,42.13
2018-07-19T10:58:39.846Z,40.84
2018-07-19T11:01:08.928Z,41.91
2018-07-19T11:03:38.002Z,40.09
2018-07-19T11:06:07.062Z,39.52
2018-07-19T11:08:36.152Z,43.41
2018-07-19T11:11:05.475Z,41.36
2018-07-19T11:13:34.543Z,40.66
2018-07-19T11:16:03.613Z,41.11
2018-07-19T11:18:32.793Z,40.95
2018-07-19T11:21:01.876Z,38.67
2018-07-19T11:23:30.925Z,39.69
2018-07-19T11:26:00.023Z,40.70
2018-07-19T11:28:29.132Z,43.40
2018-07-19T11:30:58.156Z,42.77
2018-07-19T11:33:27.253Z,39.34
2018-07-19T11:35:57.198Z,39.36
2018-07-19T11:38:27.354Z,38.47
2018-07-19T11:40:57.196Z,39.60
2018-07-19T11:43:27.332Z,41.84
2018-07-19T11:45:57.515Z,39.46
2018-07-19T11:48:27.464Z,38.86
2018-07-19T11:50:57.499Z,42.62
2018-07-19T11:53:27.523Z,38.18
2018-07-19T11:55:57.324Z,40.31
2018-07-19T11:58:27.442Z,40.41
2018-07-19T12:00:57.579Z,41.60
2018-07-19T12:03:27.808Z,42.87
2018-07-19T12:05:57.418Z,40.22
2018-07-19T12:08:27.334Z,37.82
2018-07-19T12:10:58.026Z,41.18
2018-07-19T12:13:27.636Z,44.16
2018-07-19T12:15:57.464Z,39.44
2018-07-19T12:18:27.401Z,40.96
2018-07-19T12:20:57.694Z,38.19
2018-07-19T12:23:27.436Z,40.07
2018-07-19T12:25:57.587Z,37.83
2018-07-19T12:28:27.541Z,39.50
2018-07-19T12:30:57.453Z,39.69
2018-07-19T12:33:27.518Z,38.45
2018-07-19T12:35:57.608Z,38.72
2018-07-19T12:38:27.588Z,38.99
2018-07-19T12:40:58.284Z,40.99
2018-07-19T12:43:27.628Z,37.13
2018-07-19T12:45:57.983Z,39.12
2018-07-19T12:48:27.660Z,39.04
2018-07-19T12:50:57.912Z,38.23
2018-07-19T12:53:27.891Z,35.22
2018-07-19T12:55:58.152Z,38.18
2018-07-19T12:58:27.782Z,42.89
2018-07-19T13:00:57.818Z,40.80
2018-07-19T13:03:27.856Z,36.45
2018-07-19T13:05:58.218Z,39.62
2018-07-19T13:08:28.192Z,33.07
2018-07-19T13:10:58.109Z,36.90
2018-07-19T13:13:28.719Z,33.31
2018-07-19T13:15:58.405Z,34.99
2018-07-19T13:18:28.277Z,38.20
2018-07-19T13:20:58.211Z,35.90
2018-07-19T13:23:28.070Z,37.75
2018-07-19T13:25:58.089Z,38.37
2018-07-19T13:28:28.404Z,36.80
2018-07-19T13:30:58.281Z,35.99
2018-07-19T13:33:28.092Z,34.39
2018-07-19T13:35:58.438Z,38.72
2018-07-19T13:38:28.021Z,36.57
2018-07-19T13:40:58.584Z,36.30
2018-07-19T13:43:28.210Z,38.10
2018-07-19T13:45:58.450Z,34.22
2018-07-19T13:48:28.481Z,35.92
2018-07-19T13:50:58.226Z,34.87
2018-07-19T13:53:40.195Z,33.37
2018-07-19T13:56:09.943Z,33.19
2018-07-19T13:58:39.510Z,35.68
2018-07-19T14:01:08.616Z,34.30
2018-07-19T14:03:37.739Z,37.93
2018-07-19T14:06:06.901Z,34.12
2018-07-19T14:08:35.979Z,32.45
2018-07-19T14:11:05.029Z,38.43
2018-07-19T14:13:34.541Z,33.66
2018-07-19T14:16:03.717Z,31.54
2018-07-19T14:18:33.145Z,32.22
2018-07-19T14:21:02.237Z,31.85
2018-07-19T14:23:31.379Z,27.89
2018-07-19T14:26:00.469Z,31.51
2018-07-19T14:28:29.549Z,26.83
2018-07-19T14:30:58.622Z,28.00
2018-07-19T14:33:28.586Z,28.66
2018-07-19T14:35:58.894Z,29.21
2018-07-19T14:38:28.463Z,28.13
2018-07-19T14:40:58.752Z,27.53
2018-07-19T14:43:28.677Z,28.77
2018-07-19T14:45:58.617Z,30.22
2018-07-19T14:48:28.915Z,26.56
2018-07-19T14:50:58.641Z,27.79
2018-07-19T14:53:28.804Z,29.57
2018-07-19T14:55:59.009Z,29.22
2018-07-19T14:58:29.020Z,31.20
2018-07-19T15:00:58.889Z,27.64
2018-07-19T15:03:28.945Z,26.91
2018-07-19T15:05:59.027Z,23.73
2018-07-19T15:08:28.972Z,27.86
2018-07-19T15:10:59.013Z,26.42
2018-07-19T15:13:28.943Z,25.61
2018-07-19T15:15:59.203Z,26.60
2018-07-19T15:18:29.151Z,24.11
2018-07-19T15:20:59.360Z,25.64
2018-07-19T15:23:29.113Z,27.01
2018-07-19T15:25:59.687Z,25.64
2018-07-19T15:28:29.079Z,24.53
2018-07-19T15:30:59.145Z,26.07
2018-07-19T15:33:29.128Z,25.08
2018-07-19T15:35:59.339Z,23.99
2018-07-19T15:38:29.299Z,23.88
2018-07-19T15:40:59.197Z,25.47
2018-07-19T15:43:29.206Z,25.57
2018-07-19T15:45:59.101Z,22.31
2018-07-19T15:48:29.330Z,24.05
2018-07-19T15:50:59.339Z,24.28
2018-07-19T15:53:29.259Z,23.73
2018-07-19T15:55:59.634Z,23.59
2018-07-19T15:58:29.403Z,24.47
2018-07-19T16:00:59.767Z,25.26
2018-07-19T16:03:29.365Z,24.68
2018-07-19T16:06:00.021Z,26.06
2018-07-19T16:08:29.303Z,26.55
2018-07-19T16:10:59.848Z,22.80
2018-07-19T16:13:29.637Z,24.10
2018-07-19T16:15:59.532Z,24.70
2018-07-19T16:18:29.611Z,27.14
2018-07-19T16:20:59.972Z,24.89
2018-07-19T16:23:29.454Z,26.55
2018-07-19T16:25:59.699Z,25.80
2018-07-19T16:28:30.130Z,24.36
2018-07-19T16:30:59.600Z,25.79
2018-07-19T16:33:29.895Z,27.08
2018-07-19T16:35:59.832Z,29.15
2018-07-19T16:38:29.731Z,26.91
2018-07-19T16:41:00.066Z,29.94
2018-07-19T16:43:29.822Z,30.49
2018-07-19T16:45:59.932Z,28.87
2018-07-19T16:48:30.107Z,30.18
2018-07-19T16:51:00.033Z,27.79
2018-07-19T16:53:30.037Z,30.21
2018-07-19T16:56:00.287Z,31.87
2018-07-19T16:58:30.189Z,30.19
2018-07-19T17:01:00.105Z,31.11
2018-07-19T17:03:30.021Z,30.20
2018-07-19T17:06:00.350Z,31.45
2018-07-19T17:08:30.382Z,32.81
2018-07-19T17:11:00.094Z,32.80
2018-07-19T17:13:30.201Z,31.27
2018-07-19T17:16:00.215Z,33.10
2018-07-19T17:18:30.344Z,32.19
2018-07-19T17:21:00.360Z,34.57
2018-07-19T17:23:30.482Z,32.65
2018-07-19T17:26:00.648Z,33.63
2018-07-19T17:28:30.507Z,32.16
2018-07-19T17:31:00.497Z,32.76
2018-07-19T17:33:30.402Z,33.20
2018-07-19T17:36:00.886Z,34.19
2018-07-19T17:38:30.483Z,35.35
2018-07-19T17:41:00.742Z,35.34
2018-07-19T17:43:31.009Z,33.76
2018-07-19T17:46:00.386Z,33.92
2018-07-19T17:48:30.566Z,34.86
2018-07-19T17:51:00.567Z,35.01
2018-07-19T17:53:30.803Z,34.15
2018-07-19T17:56:00.454Z,33.89
2018-07-19T17:58:30.383Z,35.28
2018-07-19T18:01:00.563Z,36.19
2018-07-19T18:03:33.682Z,34.39
2018-07-19T18:06:02.977Z,36.17
2018-07-19T18:08:32.505Z,35.45
2018-07-19T18:11:02.007Z,35.82
2018-07-19T18:13:31.395Z,35.15
2018-07-19T18:16:00.733Z,36.16
2018-07-19T18:18:30.795Z,36.22
2018-07-19T18:21:01.185Z,36.93
2018-07-19T18:23:31.055Z,36.33
2018-07-19T18:26:01.019Z,36.72
2018-07-19T18:28:30.967Z,36.63
2018-07-19T18:31:00.986Z,36.76
2018-07-19T18:33:30.832Z,37.01
2018-07-19T18:36:01.012Z,37.01
2018-07-19T18:38:30.964Z,36.78
2018-07-19T18:41:01.327Z,37.41
2018-07-19T18:43:31.197Z,37.32
2018-07-19T18:46:02.405Z,38.71
2018-07-19T18:48:32.210Z,38.02
2018-07-19T18:51:01.571Z,37.51
2018-07-19T18:53:31.245Z,38.26
2018-07-19T18:56:01.109Z,37.76
2018-07-19T18:58:30.325Z,38.33
2018-07-19T19:00:59.930Z,39.66
2018-07-19T19:03:29.358Z,40.08
2018-07-19T19:05:58.474Z,41.44
2018-07-19T19:08:28.194Z,41.73
2018-07-19T19:10:57.388Z,42.58
2018-07-19T19:13:27.002Z,42.20
2018-07-19T19:28:51.548Z,54.91
2018-07-19T19:31:21.946Z,55.24
2018-07-19T19:33:51.316Z,55.82
2018-07-19T19:36:20.401Z,56.79
2018-07-19T19:38:49.524Z,54.84
2018-07-19T19:41:18.676Z,55.01
2018-07-19T19:43:47.987Z,54.63
2018-07-19T19:46:17.451Z,54.10
2018-07-19T19:48:47.098Z,52.67
2018-07-19T19:51:16.204Z,53.32
2018-07-19T19:53:45.737Z,53.36
2018-07-19T19:56:14.834Z,54.79
2018-07-19T19:58:44.291Z,57.84
2018-07-19T20:01:13.407Z,55.83
2018-07-19T20:03:42.901Z,55.94
2018-07-19T20:06:12.011Z,56.92
2018-07-19T20:08:41.453Z,57.34
2018-07-19T20:11:10.599Z,57.43
2018-07-19T20:13:40.177Z,58.08
2018-07-19T20:16:10.063Z,57.27
2018-07-19T20:18:39.779Z,59.83
2018-07-19T20:21:09.575Z,59.42
2018-07-19T20:23:39.675Z,59.43
2018-07-19T20:26:09.367Z,59.66
2018-07-19T20:28:39.294Z,60.88
2018-07-19T20:31:08.726Z,60.65
2018-07-19T20:33:38.175Z,61.15
2018-07-19T20:36:07.306Z,60.01
2018-07-19T20:38:36.411Z,58.90
2018-07-19T20:41:05.542Z,58.70
2018-07-19T20:43:35.034Z,59.95
2018-07-19T20:46:04.236Z,61.85
2018-07-19T20:48:34.196Z,62.42
2018-07-19T20:51:04.288Z,61.47
2018-07-19T20:53:34.287Z,60.85
2018-07-19T20:56:04.582Z,59.86
2018-07-19T20:58:34.315Z,61.67
2018-07-19T21:01:04.341Z,61.69
2018-07-19T21:03:34.352Z,61.66
2018-07-19T21:06:04.669Z,61.80
2018-07-19T21:08:34.501Z,64.01
2018-07-19T21:11:04.669Z,63.40
2018-07-19T21:13:34.762Z,62.53
2018-07-19T21:16:04.811Z,63.60
2018-07-19T21:18:34.805Z,65.02
2018-07-19T21:21:04.794Z,65.55
2018-07-19T21:23:34.599Z,64.49
2018-07-19T21:26:04.562Z,65.16
2018-07-19T21:28:34.598Z,65.21
2018-07-19T21:31:05.072Z,64.23
2018-07-19T21:33:34.599Z,64.31
2018-07-19T21:36:05.026Z,64.01
2018-07-19T21:38:34.802Z,65.12
2018-07-19T21:41:05.647Z,64.78
2018-07-19T21:43:34.744Z,64.30
2018-07-19T21:46:04.958Z,65.30
2018-07-19T21:48:35.184Z,66.53
2018-07-19T21:51:05.462Z,65.29
2018-07-19T21:53:34.800Z,65.87
2018-07-19T21:56:04.952Z,66.03
2018-07-19T21:58:35.430Z,65.75
2018-07-19T22:01:10.060Z,66.55
2018-07-19T22:03:39.540Z,67.02
2018-07-19T22:06:09.429Z,67.05
2018-07-19T22:08:38.671Z,67.20
2018-07-19T22:11:07.797Z,67.57
2018-07-19T22:13:37.301Z,67.56
2018-07-19T22:16:06.849Z,68.61
2018-07-19T22:18:36.135Z,68.49
2018-07-19T22:21:05.487Z,68.14
2018-07-19T22:23:35.272Z,67.04
2018-07-19T22:26:05.341Z,66.55
2018-07-19T22:28:35.587Z,65.48
2018-07-19T22:31:05.169Z,66.84
2018-07-19T22:33:35.471Z,67.74
2018-07-19T22:36:05.524Z,67.35
2018-07-19T22:38:35.315Z,66.76
2018-07-19T22:41:05.639Z,67.05
2018-07-19T22:43:35.432Z,67.80
2018-07-19T22:46:06.216Z,68.11
2018-07-19T22:48:35.402Z,67.92
2018-07-19T22:51:05.677Z,69.43
2018-07-19T22:53:35.400Z,69.23
2018-07-19T22:56:05.866Z,69.86
2018-07-19T22:58:35.454Z,70.91
2018-07-19T23:01:05.616Z,71.68
2018-07-19T23:03:36.089Z,72.18
2018-07-19T23:06:05.576Z,72.49
2018-07-19T23:08:35.726Z,72.00
2018-07-19T23:11:05.676Z,72.18
2018-07-19T23:13:36.124Z,72.19
2018-07-19T23:16:05.707Z,72.54
2018-07-19T23:18:35.965Z,71.82
2018-07-19T23:21:05.792Z,71.11
2018-07-19T23:23:35.793Z,71.09
2018-07-19T23:26:06.046Z,71.55
2018-07-19T23:28:35.979Z,72.20
2018-07-19T23:31:05.993Z,71.96
2018-07-19T23:33:36.360Z,71.30
2018-07-19T23:36:09.563Z,71.80
2018-07-19T23:38:50.485Z,71.34
2018-07-19T23:41:24.761Z,71.41
2018-07-19T23:43:58.754Z,71.78
2018-07-19T23:46:33.446Z,72.52
2018-07-19T23:49:06.710Z,72.63
2018-07-19T23:51:38.107Z,73.30
2018-07-19T23:54:07.565Z,73.05
2018-07-19T23:56:36.656Z,72.52
2018-07-19T23:59:06.534Z,72.70
